Time;durP1;ratioP1;P1;durP2;ratioP2;P2;SDS_P1;SDS_P2;PMS_P1;PMS_P2;Temp;Humidity;BMP_temperature;BMP_pressure;BME280_temperature;BME280_humidity;BME280_pressure;Samples;Min_cycle;Max_cycle;Signal;HPM_P1;HPM_P2
2021/06/09 00:02:02;;;;;;;15.87;11.07;;;14.40;99.90;;;;;;5027893;28;20179;-57
2021/06/09 00:04:28;;;;;;;13.57;10.33;;;14.40;99.90;;;;;;5029019;28;20758;-57
2021/06/09 00:06:53;;;;;;;18.17;11.80;;;14.40;99.90;;;;;;5028891;28;20460;-57
2021/06/09 00:09:19;;;;;;;15.20;11.20;;;14.40;99.90;;;;;;5023969;28;20282;-58
2021/06/09 00:11:45;;;;;;;14.23;10.47;;;14.40;99.90;;;;;;5002404;28;20174;-56
2021/06/09 00:14:10;;;;;;;14.27;10.87;;;14.40;99.90;;;;;;5013704;28;20176;-55
2021/06/09 00:16:37;;;;;;;17.93;11.17;;;14.40;99.90;;;;;;5018738;28;20692;-56
2021/06/09 00:19:04;;;;;;;13.67;10.23;;;14.40;99.90;;;;;;5012141;28;20670;-56
2021/06/09 00:21:30;;;;;;;13.33;11.40;;;14.40;99.90;;;;;;5011751;28;20773;-56
2021/06/09 00:23:56;;;;;;;13.67;10.00;;;14.40;99.90;;;;;;5015292;28;20437;-57
2021/06/09 00:26:22;;;;;;;14.60;10.53;;;14.40;99.90;;;;;;5023614;28;20190;-57
2021/06/09 00:28:49;;;;;;;26.30;11.20;;;14.40;99.90;;;;;;5028271;28;20196;-56
2021/06/09 00:31:15;;;;;;;15.37;11.17;;;14.40;99.90;;;;;;5010254;28;20539;-56
2021/06/09 00:33:41;;;;;;;19.27;11.00;;;14.40;99.90;;;;;;5027409;28;20451;-56
2021/06/09 00:36:07;;;;;;;14.97;11.83;;;14.40;99.90;;;;;;5022808;28;20676;-57
2021/06/09 00:38:32;;;;;;;19.33;12.10;;;14.40;99.90;;;;;;5010258;28;20501;-57
2021/06/09 00:40:59;;;;;;;17.73;11.57;;;14.40;99.90;;;;;;5028301;28;20168;-57
2021/06/09 00:43:34;;;;;;;21.30;12.30;;;14.40;99.90;;;;;;5025029;28;20640;-56
2021/06/09 00:46:06;;;;;;;12.70;10.13;;;14.40;99.90;;;;;;5022840;28;20509;-57
2021/06/09 00:48:34;;;;;;;15.37;11.47;;;14.40;99.90;;;;;;5027425;28;20550;-55
2021/06/09 00:51:19;;;;;;;13.73;11.00;;;14.40;99.90;;;;;;5027408;28;20425;-56
2021/06/09 00:53:58;;;;;;;13.73;10.90;;;14.40;99.90;;;;;;5019546;28;20433;-56
2021/06/09 00:56:26;;;;;;;15.70;12.10;;;14.40;99.90;;;;;;5015524;28;20479;-56
2021/06/09 00:58:53;;;;;;;13.30;11.10;;;14.40;99.90;;;;;;5010124;28;20404;-56
2021/06/09 01:01:22;;;;;;;15.67;10.83;;;14.40;99.90;;;;;;5017140;28;20810;-56
2021/06/09 01:03:48;;;;;;;18.73;11.40;;;14.30;99.90;;;;;;5011227;28;20431;-57
2021/06/09 01:06:14;;;;;;;14.80;11.20;;;14.40;99.90;;;;;;5023232;28;20465;-56
2021/06/09 01:08:42;;;;;;;16.30;11.30;;;14.40;99.90;;;;;;5027958;28;20446;-57
2021/06/09 01:11:12;;;;;;;14.60;11.03;;;14.30;99.90;;;;;;5021001;28;20192;-56
2021/06/09 01:13:38;;;;;;;14.17;10.13;;;14.40;99.90;;;;;;5027485;28;20840;-57
2021/06/09 01:16:03;;;;;;;15.23;11.43;;;14.40;99.90;;;;;;5025681;28;20438;-56
2021/06/09 01:18:29;;;;;;;15.53;11.33;;;14.40;99.90;;;;;;5025155;28;20756;-56
2021/06/09 01:20:57;;;;;;;17.23;11.20;;;14.30;99.90;;;;;;5007383;28;20226;-57
2021/06/09 01:23:23;;;;;;;18.90;12.80;;;14.30;99.90;;;;;;5027966;28;20164;-56
2021/06/09 01:25:50;;;;;;;14.47;11.50;;;14.30;99.90;;;;;;4996173;28;20450;-57
2021/06/09 01:28:16;;;;;;;17.50;12.40;;;14.30;99.90;;;;;;5027495;28;20446;-56
2021/06/09 01:30:42;;;;;;;13.47;10.50;;;14.30;99.90;;;;;;5009194;28;20418;-57
2021/06/09 01:33:09;;;;;;;15.33;11.70;;;14.30;99.90;;;;;;5026878;28;20545;-57
2021/06/09 01:35:35;;;;;;;16.43;12.83;;;14.30;99.90;;;;;;5017870;28;20455;-56
2021/06/09 01:38:02;;;;;;;18.83;11.87;;;14.30;99.90;;;;;;5026873;28;20532;-55
2021/06/09 01:40:28;;;;;;;15.77;11.93;;;14.30;99.90;;;;;;5008891;28;20414;-56
2021/06/09 01:42:54;;;;;;;15.47;12.20;;;14.30;99.90;;;;;;5008360;28;20569;-57
2021/06/09 01:45:25;;;;;;;15.03;11.50;;;14.30;99.90;;;;;;5027666;28;20426;-57
2021/06/09 01:47:51;;;;;;;13.90;11.63;;;14.30;99.90;;;;;;5027497;28;20379;-57
2021/06/09 01:50:17;;;;;;;18.97;12.47;;;14.30;99.90;;;;;;5025661;28;20541;-55
2021/06/09 01:52:45;;;;;;;15.47;11.30;;;14.30;99.90;;;;;;5024120;28;21004;-57
2021/06/09 01:55:13;;;;;;;23.80;12.67;;;14.30;99.90;;;;;;5008658;28;20534;-57
2021/06/09 01:57:39;;;;;;;16.27;12.23;;;14.30;99.90;;;;;;5027034;28;20451;-57
2021/06/09 02:00:24;;;;;;;15.77;12.60;;;14.30;99.90;;;;;;5024897;28;20544;-56
2021/06/09 02:02:50;;;;;;;16.70;12.33;;;14.30;99.90;;;;;;5027578;28;20843;-57
2021/06/09 02:05:16;;;;;;;16.50;12.13;;;14.20;99.90;;;;;;5019176;28;20463;-56
2021/06/09 02:07:44;;;;;;;19.40;13.03;;;14.20;99.90;;;;;;5007733;28;20939;-56
2021/06/09 02:10:21;;;;;;;15.20;11.77;;;14.20;99.90;;;;;;5009040;28;20224;-56
2021/06/09 02:12:50;;;;;;;18.03;12.60;;;14.20;99.90;;;;;;5007116;28;20379;-57
2021/06/09 02:15:19;;;;;;;17.43;12.10;;;14.20;99.90;;;;;;5019495;28;21149;-56
2021/06/09 02:18:14;;;;;;;17.40;12.60;;;14.20;99.90;;;;;;5020515;28;20855;-56
2021/06/09 02:20:53;;;;;;;15.80;12.80;;;14.10;99.90;;;;;;5002093;28;20966;-57
2021/06/09 02:23:24;;;;;;;17.93;11.93;;;14.10;99.90;;;;;;5007179;28;20552;-56
2021/06/09 02:25:52;;;;;;;18.07;13.50;;;14.10;99.90;;;;;;5008160;28;20915;-56
2021/06/09 02:28:20;;;;;;;18.37;14.13;;;14.10;99.90;;;;;;5026552;28;20512;-57
2021/06/09 02:30:47;;;;;;;19.60;13.30;;;14.10;99.90;;;;;;5017764;28;20498;-57
2021/06/09 02:33:14;;;;;;;17.37;12.20;;;14.00;99.90;;;;;;5023685;28;20764;-55
2021/06/09 02:35:43;;;;;;;17.83;12.00;;;14.00;99.90;;;;;;5025210;28;20958;-57
2021/06/09 02:38:09;;;;;;;17.87;13.47;;;14.00;99.90;;;;;;5026195;28;20418;-56
2021/06/09 02:40:37;;;;;;;19.27;11.90;;;14.00;99.90;;;;;;5025710;28;20418;-56
2021/06/09 02:43:03;;;;;;;16.40;11.77;;;14.00;99.90;;;;;;5017242;28;20851;-57
2021/06/09 02:45:29;;;;;;;17.27;11.53;;;14.00;99.90;;;;;;5008814;28;20433;-56
2021/06/09 02:47:59;;;;;;;15.40;11.93;;;14.00;99.90;;;;;;5025168;28;20238;-55
2021/06/09 02:50:25;;;;;;;19.33;12.50;;;14.00;99.90;;;;;;5023996;28;20172;-56
2021/06/09 02:53:06;;;;;;;20.57;13.07;;;14.00;99.90;;;;;;5020769;28;20479;-56
2021/06/09 02:55:39;;;;;;;15.60;11.50;;;14.00;99.90;;;;;;5008662;28;20188;-57
2021/06/09 02:58:23;;;;;;;19.93;13.13;;;14.00;99.90;;;;;;5027222;28;20387;-57
2021/06/09 03:01:02;;;;;;;14.90;11.67;;;14.00;99.90;;;;;;5008293;28;20836;-56
2021/06/09 03:03:41;;;;;;;16.27;12.63;;;14.00;99.90;;;;;;5028746;28;20489;-57
2021/06/09 03:06:16;;;;;;;18.20;12.20;;;14.00;99.90;;;;;;5043558;22;20743;-61
2021/06/09 03:08:55;;;;;;;16.63;12.97;;;14.00;99.90;;;;;;5028786;28;20464;-61
2021/06/09 03:11:32;;;;;;;18.07;11.67;;;14.00;99.90;;;;;;5030191;28;20425;-61
2021/06/09 03:16:58;;;;;;;17.17;12.97;;;14.00;99.90;;;;;;5001203;28;20462;-61
2021/06/09 03:19:32;;;;;;;15.80;12.47;;;13.90;99.90;;;;;;5037645;28;20938;-61
2021/06/09 03:22:15;;;;;;;18.90;12.83;;;13.90;99.90;;;;;;5017863;28;20802;-60
2021/06/09 03:24:44;;;;;;;16.87;12.67;;;13.90;99.90;;;;;;5021099;28;20419;-61
2021/06/09 03:27:21;;;;;;;18.20;12.63;;;13.90;99.90;;;;;;5034288;28;20440;-60
2021/06/09 03:29:55;;;;;;;21.20;13.60;;;13.90;99.90;;;;;;5051527;28;20453;-60
2021/06/09 03:32:44;;;;;;;20.47;13.80;;;13.90;99.90;;;;;;5036368;28;20429;-60
2021/06/09 03:35:17;;;;;;;16.20;12.57;;;13.90;99.90;;;;;;5038972;28;20461;-61
2021/06/09 03:37:50;;;;;;;17.07;12.20;;;13.90;99.90;;;;;;5042643;28;20989;-60
2021/06/09 03:40:19;;;;;;;19.43;12.60;;;14.00;99.90;;;;;;5032323;28;20517;-60
2021/06/09 03:42:49;;;;;;;17.10;13.20;;;14.00;99.90;;;;;;5014960;28;20432;-60
2021/06/09 03:45:16;;;;;;;17.80;12.67;;;14.00;99.90;;;;;;5037095;28;20462;-61
2021/06/09 03:47:43;;;;;;;18.23;12.93;;;14.00;99.90;;;;;;5029138;28;20437;-61
2021/06/09 03:50:09;;;;;;;18.63;12.30;;;14.00;99.90;;;;;;5032389;28;20453;-60
2021/06/09 03:52:37;;;;;;;22.63;12.70;;;14.00;99.90;;;;;;5037686;28;20409;-61
2021/06/09 03:55:08;;;;;;;19.17;13.43;;;14.00;99.90;;;;;;5041954;28;20821;-60
2021/06/09 03:57:38;;;;;;;19.80;12.63;;;14.00;99.90;;;;;;5043984;28;20486;-61
2021/06/09 04:00:05;;;;;;;16.43;12.87;;;14.00;99.90;;;;;;5045521;28;20422;-61
2021/06/09 04:02:33;;;;;;;17.43;12.83;;;13.90;99.90;;;;;;5037788;28;20520;-59
2021/06/09 04:05:01;;;;;;;15.77;11.93;;;13.90;99.90;;;;;;5036180;28;20466;-60
2021/06/09 04:07:28;;;;;;;18.83;12.47;;;13.90;99.90;;;;;;5042495;28;20444;-60
2021/06/09 04:09:57;;;;;;;20.70;12.83;;;13.90;99.90;;;;;;5038660;28;20462;-59
2021/06/09 04:12:23;;;;;;;15.40;12.10;;;13.90;99.90;;;;;;5040413;28;20429;-61
2021/06/09 04:14:54;;;;;;;18.90;14.20;;;13.90;99.90;;;;;;5040952;28;20447;-61
2021/06/09 04:17:27;;;;;;;18.83;12.00;;;14.00;99.90;;;;;;5039450;28;20664;-61
2021/06/09 04:19:56;;;;;;;17.83;12.30;;;14.00;99.90;;;;;;5042526;28;20453;-61
2021/06/09 04:22:22;;;;;;;15.37;11.50;;;14.00;99.90;;;;;;5036844;28;20437;-62
2021/06/09 04:24:48;;;;;;;15.73;12.47;;;14.00;99.90;;;;;;5025477;28;20492;-61
2021/06/09 04:27:25;;;;;;;16.10;12.33;;;14.00;99.90;;;;;;5039421;28;20520;-62
2021/06/09 04:29:53;;;;;;;20.00;12.90;;;14.00;99.90;;;;;;5022269;28;20444;-62
2021/06/09 04:32:19;;;;;;;21.30;12.57;;;14.00;99.90;;;;;;5023787;28;20454;-62
2021/06/09 04:34:58;;;;;;;17.07;12.40;;;13.90;99.90;;;;;;5036434;28;20483;-61
2021/06/09 04:37:25;;;;;;;16.77;11.80;;;13.90;99.90;;;;;;5035818;28;20228;-61
2021/06/09 04:39:52;;;;;;;17.67;13.10;;;14.00;99.90;;;;;;5033018;28;20434;-61
2021/06/09 04:42:20;;;;;;;22.23;13.10;;;14.00;99.90;;;;;;5035302;28;20434;-61
2021/06/09 04:44:45;;;;;;;17.83;13.67;;;14.10;99.90;;;;;;5018762;28;20462;-61
2021/06/09 04:47:13;;;;;;;20.30;13.27;;;14.10;99.90;;;;;;5023430;28;20589;-61
2021/06/09 04:49:44;;;;;;;18.50;14.13;;;14.20;99.90;;;;;;5036770;28;20209;-62
2021/06/09 04:52:11;;;;;;;20.40;13.30;;;14.30;99.90;;;;;;5030371;28;20517;-62
2021/06/09 04:54:38;;;;;;;21.57;13.50;;;14.30;99.90;;;;;;5041862;28;20425;-62
2021/06/09 04:57:05;;;;;;;27.07;13.53;;;14.40;99.90;;;;;;5038713;28;20544;-62
2021/06/09 04:59:31;;;;;;;19.37;13.93;;;14.50;99.90;;;;;;5039358;28;20485;-61
2021/06/09 05:01:57;;;;;;;18.70;14.07;;;14.50;99.90;;;;;;5035542;28;20802;-61
2021/06/09 05:04:22;;;;;;;18.93;13.47;;;14.60;99.90;;;;;;5041474;28;20925;-61
2021/06/09 05:06:48;;;;;;;21.53;13.60;;;14.70;99.90;;;;;;5022154;28;20272;-61
2021/06/09 05:09:14;;;;;;;20.57;14.87;;;14.70;99.90;;;;;;5043220;28;20191;-60
2021/06/09 05:11:49;;;;;;;46.43;14.40;;;14.80;99.90;;;;;;5041185;28;20759;-61
2021/06/09 05:14:36;;;;;;;14.93;12.20;;;15.00;99.90;;;;;;5032148;28;20453;-61
2021/06/09 05:17:04;;;;;;;17.43;12.80;;;15.10;99.90;;;;;;5018985;28;21187;-61
2021/06/09 05:19:32;;;;;;;23.53;13.90;;;15.10;99.90;;;;;;5040759;28;20483;-62
2021/06/09 05:22:04;;;;;;;18.33;13.20;;;15.10;99.90;;;;;;5021213;28;20846;-61
2021/06/09 05:24:32;;;;;;;28.00;15.33;;;15.20;99.90;;;;;;5015660;28;20558;-61
2021/06/09 05:26:59;;;;;;;17.73;13.83;;;15.10;99.90;;;;;;5016009;28;21014;-61
2021/06/09 05:29:26;;;;;;;22.13;15.23;;;15.10;99.90;;;;;;5038146;28;20571;-61
2021/06/09 05:31:54;;;;;;;22.07;14.80;;;15.20;99.90;;;;;;5041748;28;20801;-61
2021/06/09 05:34:22;;;;;;;21.43;15.00;;;15.20;99.90;;;;;;5037965;28;22703;-61
2021/06/09 05:36:49;;;;;;;20.60;15.20;;;15.30;99.90;;;;;;5036640;28;20426;-61
2021/06/09 05:39:16;;;;;;;24.83;15.33;;;15.40;99.90;;;;;;5040540;28;20426;-61
2021/06/09 05:41:44;;;;;;;21.70;15.00;;;15.50;99.90;;;;;;5033945;28;20433;-61
2021/06/09 05:44:15;;;;;;;22.23;14.97;;;15.50;99.90;;;;;;5039716;28;20426;-61
2021/06/09 05:46:40;;;;;;;22.10;16.47;;;15.50;99.90;;;;;;5040055;28;20881;-62
2021/06/09 05:49:06;;;;;;;24.67;15.90;;;15.60;99.90;;;;;;5031195;28;20493;-62
2021/06/09 05:51:32;;;;;;;20.17;15.00;;;15.60;99.90;;;;;;5033925;28;20168;-62
2021/06/09 05:53:58;;;;;;;21.73;15.70;;;15.70;99.90;;;;;;5039966;28;20283;-62
2021/06/09 05:56:24;;;;;;;23.43;16.40;;;15.70;99.90;;;;;;5037917;28;21028;-61
2021/06/09 05:58:50;;;;;;;24.73;15.20;;;15.80;99.90;;;;;;5023855;28;20186;-62
2021/06/09 06:01:16;;;;;;;21.37;15.23;;;15.80;99.90;;;;;;5037836;28;20823;-62
2021/06/09 06:03:42;;;;;;;25.90;16.60;;;15.90;99.90;;;;;;5035375;28;20191;-62
2021/06/09 06:06:11;;;;;;;18.10;13.37;;;16.00;99.90;;;;;;5034332;28;20203;-61
2021/06/09 06:08:39;;;;;;;25.80;16.20;;;16.00;99.90;;;;;;5034840;28;20839;-61
2021/06/09 06:11:11;;;;;;;20.93;14.90;;;16.10;99.90;;;;;;5037004;28;22704;-62
2021/06/09 06:13:39;;;;;;;20.70;15.43;;;16.20;99.90;;;;;;5036975;28;20456;-62
2021/06/09 06:16:05;;;;;;;24.00;16.40;;;16.30;99.90;;;;;;5024247;28;20496;-62
2021/06/09 06:18:40;;;;;;;23.17;15.90;;;16.40;99.90;;;;;;5030071;28;21063;-62
2021/06/09 06:21:07;;;;;;;27.07;15.93;;;16.50;99.90;;;;;;5037670;28;20505;-62
2021/06/09 06:23:34;;;;;;;22.43;15.10;;;16.60;99.90;;;;;;5040474;28;20568;-62
2021/06/09 06:26:00;;;;;;;18.70;14.60;;;16.60;99.90;;;;;;5027264;28;21171;-62
2021/06/09 06:28:26;;;;;;;25.07;16.23;;;16.60;99.90;;;;;;5045197;28;20527;-61
2021/06/09 06:30:53;;;;;;;24.87;15.83;;;16.70;99.90;;;;;;5038834;28;20433;-62
2021/06/09 06:33:24;;;;;;;20.10;14.90;;;16.80;99.90;;;;;;5042375;28;20250;-62
2021/06/09 06:35:51;;;;;;;23.90;16.10;;;16.90;99.90;;;;;;5046569;28;20455;-61
2021/06/09 06:38:19;;;;;;;21.77;14.70;;;17.00;99.90;;;;;;5041994;28;20555;-62
2021/06/09 06:40:45;;;;;;;25.07;15.67;;;17.10;99.90;;;;;;5043909;28;20496;-62
2021/06/09 06:43:11;;;;;;;20.67;14.73;;;17.20;99.90;;;;;;5052750;28;20409;-61
2021/06/09 06:45:38;;;;;;;25.40;15.87;;;17.30;99.90;;;;;;5050687;28;20458;-61
2021/06/09 06:48:05;;;;;;;20.93;14.60;;;17.40;99.90;;;;;;5044380;28;20512;-61
2021/06/09 06:50:30;;;;;;;22.60;16.23;;;17.50;99.90;;;;;;5029392;28;20809;-61
2021/06/09 06:52:57;;;;;;;23.93;15.43;;;17.60;99.90;;;;;;5045172;28;20421;-62
2021/06/09 06:55:23;;;;;;;24.50;15.43;;;17.70;99.90;;;;;;5052449;28;20509;-62
2021/06/09 06:57:50;;;;;;;25.43;16.50;;;17.80;99.90;;;;;;5047502;28;20508;-60
2021/06/09 07:00:19;;;;;;;32.00;16.83;;;17.90;99.90;;;;;;5026216;28;20538;-61
2021/06/09 07:02:52;;;;;;;21.47;15.93;;;18.00;99.90;;;;;;5047053;28;20571;-61
2021/06/09 07:05:19;;;;;;;23.23;16.33;;;18.00;99.90;;;;;;5021276;28;21014;-62
2021/06/09 07:07:45;;;;;;;23.73;16.23;;;18.10;99.90;;;;;;5042839;28;20430;-62
2021/06/09 07:10:14;;;;;;;27.90;16.00;;;18.20;99.90;;;;;;5046686;28;20604;-62
2021/06/09 07:12:40;;;;;;;20.67;15.70;;;18.20;99.90;;;;;;5016493;28;20418;-62
2021/06/09 07:15:11;;;;;;;19.03;14.40;;;18.20;99.90;;;;;;5035260;28;20454;-61
2021/06/09 07:17:43;;;;;;;25.80;16.43;;;18.20;99.90;;;;;;5044717;28;20434;-62
2021/06/09 07:20:11;;;;;;;22.33;15.13;;;18.30;99.90;;;;;;5029897;28;21141;-62
2021/06/09 07:22:38;;;;;;;22.23;15.80;;;18.40;99.90;;;;;;5042441;28;20433;-61
2021/06/09 07:25:06;;;;;;;23.90;15.73;;;18.50;99.90;;;;;;5037211;28;20445;-62
2021/06/09 07:27:41;;;;;;;23.67;16.10;;;18.60;99.90;;;;;;5040127;28;20434;-63
2021/06/09 07:30:09;;;;;;;24.73;16.07;;;18.60;99.90;;;;;;5040102;28;20538;-62
2021/06/09 07:32:37;;;;;;;26.00;16.17;;;18.50;99.90;;;;;;5042681;28;20445;-60
2021/06/09 07:35:04;;;;;;;24.70;16.73;;;18.60;99.90;;;;;;5022315;28;20929;-62
2021/06/09 07:37:34;;;;;;;20.40;14.67;;;18.70;99.90;;;;;;5038124;28;20426;-62
2021/06/09 07:40:02;;;;;;;22.20;15.13;;;18.80;99.90;;;;;;5020912;28;20440;-62
2021/06/09 07:42:30;;;;;;;21.43;15.10;;;18.90;99.90;;;;;;5041024;28;20847;-62
2021/06/09 07:45:08;;;;;;;18.67;13.60;;;19.00;99.90;;;;;;5037025;28;20474;-63
2021/06/09 07:47:34;;;;;;;17.33;12.70;;;19.10;99.80;;;;;;5019944;28;20514;-61
2021/06/09 07:50:04;;;;;;;15.60;12.43;;;19.10;99.90;;;;;;5033423;28;20489;-62
2021/06/09 07:52:31;;;;;;;17.97;13.63;;;19.20;99.90;;;;;;5038939;28;20438;-61
2021/06/09 07:54:58;;;;;;;23.73;14.63;;;19.30;99.90;;;;;;5041830;28;20977;-62
2021/06/09 07:57:26;;;;;;;22.90;15.27;;;19.40;99.90;;;;;;5029764;28;20445;-62
2021/06/09 07:59:52;;;;;;;23.43;14.53;;;19.40;99.80;;;;;;5041820;28;20421;-61
2021/06/09 08:02:19;;;;;;;24.83;15.50;;;19.50;99.90;;;;;;5041603;28;20441;-61
2021/06/09 08:04:46;;;;;;;21.03;14.80;;;19.50;99.90;;;;;;5040338;28;20468;-61
2021/06/09 08:07:13;;;;;;;21.00;14.37;;;19.50;99.90;;;;;;5038363;28;20448;-62
2021/06/09 08:09:39;;;;;;;19.50;13.40;;;19.50;98.80;;;;;;5036616;28;20465;-62
2021/06/09 08:12:06;;;;;;;22.97;15.70;;;19.50;99.50;;;;;;5040897;28;20437;-62
2021/06/09 08:14:33;;;;;;;18.30;13.73;;;19.60;99.90;;;;;;5039692;28;20182;-62
2021/06/09 08:17:00;;;;;;;20.07;14.13;;;19.70;99.90;;;;;;5037814;28;20469;-61
2021/06/09 08:19:26;;;;;;;23.03;13.90;;;19.80;99.90;;;;;;5037347;28;20504;-61
2021/06/09 08:21:51;;;;;;;21.07;12.83;;;19.90;99.90;;;;;;5033627;28;20441;-61
2021/06/09 08:24:17;;;;;;;15.93;12.43;;;20.00;99.90;;;;;;5039863;28;20214;-60
2021/06/09 08:26:43;;;;;;;20.60;13.93;;;20.00;97.60;;;;;;5033531;28;20195;-59
2021/06/09 08:29:09;;;;;;;16.17;12.33;;;20.00;98.40;;;;;;5022838;28;20202;-59
2021/06/09 08:31:36;;;;;;;17.27;13.70;;;20.10;98.00;;;;;;5040037;28;20267;-60
2021/06/09 08:34:03;;;;;;;18.70;13.13;;;20.10;98.60;;;;;;5041193;28;20444;-59
2021/06/09 08:36:30;;;;;;;17.50;13.13;;;20.20;97.60;;;;;;5033630;28;21005;-60
2021/06/09 08:38:57;;;;;;;14.97;12.30;;;20.20;97.30;;;;;;5018505;28;20961;-61
2021/06/09 08:41:32;;;;;;;16.63;12.10;;;20.20;97.70;;;;;;5042432;28;20441;-60
2021/06/09 08:43:59;;;;;;;17.30;13.23;;;20.30;98.00;;;;;;5038791;28;20429;-61
2021/06/09 08:46:26;;;;;;;23.20;13.57;;;20.50;98.60;;;;;;5035845;28;20472;-60
2021/06/09 08:48:55;;;;;;;22.60;13.20;;;20.70;98.10;;;;;;5039957;28;20465;-61
2021/06/09 08:51:21;;;;;;;17.30;12.53;;;20.90;97.50;;;;;;5019651;28;20497;-60
2021/06/09 08:53:52;;;;;;;16.40;12.70;;;21.00;97.40;;;;;;5037472;28;20438;-61
2021/06/09 08:56:23;;;;;;;17.27;12.67;;;21.10;97.20;;;;;;5030515;28;20457;-60
2021/06/09 08:58:49;;;;;;;25.57;14.37;;;21.20;95.50;;;;;;5035950;28;20433;-61
2021/06/09 09:01:15;;;;;;;19.47;13.60;;;21.20;94.20;;;;;;5032730;28;21018;-60
2021/06/09 09:03:43;;;;;;;18.13;14.30;;;21.20;95.60;;;;;;5037061;28;21094;-60
2021/06/09 09:06:09;;;;;;;21.43;13.03;;;21.30;96.00;;;;;;5060547;22;20910;-56
2021/06/09 09:08:35;;;;;;;17.30;12.97;;;21.40;96.50;;;;;;5040597;28;21004;-56
2021/06/09 09:11:01;;;;;;;18.17;13.20;;;21.40;95.60;;;;;;5038403;28;20528;-55
2021/06/09 09:13:27;;;;;;;14.00;11.10;;;21.40;94.90;;;;;;5038653;28;20191;-55
2021/06/09 09:15:55;;;;;;;16.50;12.40;;;21.40;95.00;;;;;;5034647;28;21690;-56
2021/06/09 09:18:35;;;;;;;21.50;12.67;;;21.60;96.30;;;;;;5021731;28;20168;-56
2021/06/09 09:21:01;;;;;;;17.70;12.23;;;21.70;94.70;;;;;;5019792;28;20430;-57
2021/06/09 09:23:29;;;;;;;13.27;11.73;;;21.60;94.00;;;;;;5016418;28;20510;-55
2021/06/09 09:25:56;;;;;;;14.83;11.80;;;21.40;94.30;;;;;;5023719;28;20290;-56
2021/06/09 09:28:31;;;;;;;17.13;12.00;;;21.30;94.60;;;;;;5025249;28;20536;-56
2021/06/09 09:31:17;;;;;;;14.90;11.60;;;21.30;95.30;;;;;;5020840;28;20517;-56
2021/06/09 09:33:44;;;;;;;14.50;12.20;;;21.30;95.00;;;;;;5023440;28;20417;-56
2021/06/09 09:36:29;;;;;;;13.97;12.30;;;21.30;94.90;;;;;;5021985;28;21110;-55
2021/06/09 09:38:56;;;;;;;14.70;11.97;;;21.30;95.50;;;;;;5005318;28;20452;-56
2021/06/09 09:41:27;;;;;;;14.70;12.20;;;21.30;96.20;;;;;;5016412;28;21300;-55
2021/06/09 09:43:52;;;;;;;19.60;12.13;;;21.30;96.60;;;;;;5020420;28;20865;-56
2021/06/09 09:46:34;;;;;;;19.90;12.53;;;21.30;96.40;;;;;;5018691;28;20463;-56
2021/06/09 09:49:11;;;;;;;15.40;13.30;;;21.20;96.30;;;;;;5015950;28;20703;-56
2021/06/09 09:51:53;;;;;;;15.43;12.00;;;21.00;96.40;;;;;;5016389;28;20434;-53
2021/06/09 09:54:28;;;;;;;20.93;13.60;;;20.90;96.30;;;;;;5016324;28;20467;-53
2021/06/09 09:56:55;;;;;;;19.77;14.03;;;20.80;96.00;;;;;;5014971;28;20464;-54
2021/06/09 09:59:26;;;;;;;22.90;13.17;;;20.70;96.20;;;;;;5016912;28;20449;-54
2021/06/09 10:01:54;;;;;;;17.27;13.03;;;20.70;95.90;;;;;;5017847;28;20438;-53
2021/06/09 10:04:27;;;;;;;16.77;12.23;;;20.60;96.40;;;;;;5015182;28;21505;-52
2021/06/09 10:06:54;;;;;;;17.40;12.60;;;20.60;97.20;;;;;;5017840;28;20470;-55
2021/06/09 10:09:25;;;;;;;17.87;13.10;;;20.60;97.40;;;;;;5005160;28;20469;-55
2021/06/09 10:12:03;;;;;;;17.90;12.97;;;20.60;97.90;;;;;;5019543;28;20445;-55
2021/06/09 10:14:34;;;;;;;17.60;12.87;;;20.60;98.00;;;;;;5023917;28;20964;-54
2021/06/09 10:17:33;;;;;;;17.83;12.27;;;20.70;97.20;;;;;;5023802;28;20438;-55
2021/06/09 10:20:03;;;;;;;16.20;12.50;;;20.70;97.30;;;;;;5007325;28;20442;-53
2021/06/09 10:22:36;;;;;;;15.40;12.03;;;20.80;97.30;;;;;;5019874;28;20421;-53
2021/06/09 10:25:08;;;;;;;17.50;12.13;;;20.80;97.60;;;;;;5023562;28;20470;-54
2021/06/09 10:27:39;;;;;;;15.73;11.67;;;21.00;97.00;;;;;;5027538;28;20436;-54
2021/06/09 10:30:17;;;;;;;17.67;14.13;;;21.20;96.80;;;;;;5017077;28;20529;-54
2021/06/09 10:32:45;;;;;;;16.90;12.93;;;21.50;95.90;;;;;;5019384;28;20425;-56
2021/06/09 10:35:11;;;;;;;13.63;10.70;;;21.50;95.80;;;;;;5023280;28;20438;-55
2021/06/09 10:37:37;;;;;;;15.60;11.50;;;21.40;95.50;;;;;;5022063;28;20461;-55
2021/06/09 10:40:04;;;;;;;17.70;12.13;;;21.20;95.80;;;;;;5023291;28;20442;-53
2021/06/09 10:42:30;;;;;;;11.90;9.50;;;21.00;97.30;;;;;;5022688;28;20183;-55
2021/06/09 10:44:57;;;;;;;22.30;10.70;;;20.70;97.50;;;;;;5023748;28;20438;-54
2021/06/09 10:47:33;;;;;;;18.53;10.03;;;20.40;97.20;;;;;;5017526;28;20450;-56
2021/06/09 10:50:00;;;;;;;20.77;12.47;;;20.10;97.90;;;;;;5020591;28;20472;-54
2021/06/09 10:52:26;;;;;;;18.20;12.50;;;19.80;99.80;;;;;;5020528;28;20485;-58
2021/06/09 10:54:53;;;;;;;16.17;10.80;;;19.50;99.90;;;;;;5023409;28;20536;-54
2021/06/09 10:57:19;;;;;;;14.50;9.60;;;19.20;99.90;;;;;;5019532;28;20553;-54
2021/06/09 10:59:45;;;;;;;21.87;10.63;;;18.90;99.90;;;;;;5021376;28;20435;-56
2021/06/09 11:02:22;;;;;;;13.47;9.63;;;18.70;99.90;;;;;;5018803;28;20504;-55
2021/06/09 11:04:52;;;;;;;12.90;9.93;;;18.50;99.90;;;;;;5019779;28;20219;-54
2021/06/09 11:07:37;;;;;;;13.40;10.13;;;18.20;99.90;;;;;;5022150;28;20492;-53
2021/06/09 11:10:08;;;;;;;17.30;10.70;;;18.10;99.90;;;;;;5018067;28;20458;-55
2021/06/09 11:12:40;;;;;;;16.37;10.90;;;17.80;99.90;;;;;;5028130;28;20465;-54
2021/06/09 11:15:12;;;;;;;20.03;12.13;;;17.70;99.90;;;;;;5019791;28;20435;-53
2021/06/09 11:17:57;;;;;;;17.93;12.47;;;17.60;99.90;;;;;;5023820;28;20457;-54
2021/06/09 11:20:38;;;;;;;19.20;12.97;;;17.60;99.90;;;;;;5023287;28;20446;-53
2021/06/09 11:23:37;;;;;;;18.60;13.93;;;17.50;99.90;;;;;;5019543;28;20441;-54
2021/06/09 11:26:05;;;;;;;17.70;14.10;;;17.50;99.90;;;;;;5012459;28;20819;-54
2021/06/09 11:28:34;;;;;;;25.63;13.53;;;17.60;99.90;;;;;;5023818;28;20520;-55
2021/06/09 11:31:02;;;;;;;23.00;15.47;;;17.60;99.90;;;;;;5024196;28;20488;-56
2021/06/09 11:33:28;;;;;;;22.93;13.30;;;17.60;99.90;;;;;;5002953;28;20890;-57
2021/06/09 11:35:57;;;;;;;20.87;13.40;;;17.70;99.90;;;;;;5027053;28;20480;-57
2021/06/09 11:38:31;;;;;;;18.30;14.13;;;17.70;99.90;;;;;;5008254;28;20271;-52
2021/06/09 11:41:18;;;;;;;16.43;13.50;;;17.80;99.90;;;;;;5023118;28;20762;-52
2021/06/09 11:43:47;;;;;;;20.53;14.60;;;17.80;99.90;;;;;;5021554;28;20994;-53
2021/06/09 11:46:21;;;;;;;22.90;14.87;;;17.90;99.90;;;;;;5023237;28;20454;-54
2021/06/09 11:49:09;;;;;;;18.70;13.57;;;18.00;99.90;;;;;;5018323;28;21103;-54
2021/06/09 11:51:39;;;;;;;18.20;14.00;;;18.10;99.90;;;;;;5004372;28;20473;-54
2021/06/09 11:54:15;;;;;;;15.23;12.07;;;18.20;99.90;;;;;;5018690;28;20430;-55
2021/06/09 11:56:44;;;;;;;18.93;14.13;;;18.30;99.90;;;;;;5014686;28;20446;-53
2021/06/09 11:59:27;;;;;;;22.30;12.70;;;18.40;99.90;;;;;;5003042;28;20506;-54
2021/06/09 12:01:59;;;;;;;16.90;11.73;;;18.40;99.90;;;;;;5015847;28;20910;-52
2021/06/09 12:04:36;;;;;;;16.20;12.30;;;18.50;99.90;;;;;;5016383;28;20442;-54
2021/06/09 12:07:07;;;;;;;11.33;9.60;;;18.50;99.90;;;;;;5018200;28;20470;-53
2021/06/09 12:09:36;;;;;;;13.77;10.67;;;18.40;99.90;;;;;;5019423;28;20545;-54
2021/06/09 12:12:08;;;;;;;15.13;10.83;;;18.30;99.90;;;;;;5023321;28;20430;-54
2021/06/09 12:14:38;;;;;;;16.20;12.00;;;18.20;99.90;;;;;;5021647;28;20795;-53
2021/06/09 12:17:10;;;;;;;15.07;11.73;;;18.10;99.90;;;;;;5023508;28;20962;-53
2021/06/09 12:19:36;;;;;;;15.83;12.73;;;18.00;99.90;;;;;;5018773;28;20446;-52
2021/06/09 12:22:20;;;;;;;21.43;12.80;;;17.90;99.90;;;;;;5006919;28;20598;-53
2021/06/09 12:25:02;;;;;;;16.50;12.37;;;17.80;99.90;;;;;;5023362;28;20441;-52
2021/06/09 12:27:29;;;;;;;15.57;12.30;;;17.80;99.90;;;;;;5018803;28;20507;-53
2021/06/09 12:29:55;;;;;;;17.23;12.80;;;17.70;99.90;;;;;;5018171;28;21041;-53
2021/06/09 12:32:25;;;;;;;14.03;12.20;;;17.60;99.90;;;;;;5015513;28;20436;-53
2021/06/09 12:34:55;;;;;;;17.17;12.20;;;17.60;99.90;;;;;;5018484;28;20681;-54
2021/06/09 12:37:22;;;;;;;18.37;12.87;;;17.50;99.90;;;;;;5019117;28;20958;-56
2021/06/09 12:40:06;;;;;;;15.20;12.17;;;17.50;99.90;;;;;;5015793;28;20621;-53
2021/06/09 12:42:32;;;;;;;15.37;12.57;;;17.40;99.90;;;;;;5002356;28;20991;-54
2021/06/09 12:44:58;;;;;;;13.70;10.33;;;17.40;99.90;;;;;;5020129;28;20498;-53